createdAt,value
2023-05-02T00:00:45.134Z,38.56
2023-05-02T00:01:46.184Z,38.54
2023-05-02T00:02:46.401Z,38.58
2023-05-02T00:03:45.402Z,38.56
2023-05-02T00:04:46.314Z,38.60
2023-05-02T00:05:45.390Z,38.55
2023-05-02T00:06:45.826Z,38.52
2023-05-02T00:08:46.054Z,38.55
2023-05-02T00:09:46.609Z,38.56
2023-05-02T00:10:45.672Z,38.57
2023-05-02T00:11:46.376Z,38.60
2023-05-02T00:12:45.780Z,38.53
2023-05-02T00:13:47.271Z,38.52
2023-05-02T00:14:46.305Z,38.55
2023-05-02T00:15:46.949Z,38.56
2023-05-02T00:16:47.005Z,38.57
2023-05-02T00:17:47.115Z,38.57
2023-05-02T00:18:46.130Z,38.53
2023-05-02T00:19:47.168Z,38.58
2023-05-02T00:20:46.230Z,38.63
2023-05-02T00:21:47.294Z,38.61
2023-05-02T00:22:47.337Z,38.58
2023-05-02T00:23:47.394Z,38.57
2023-05-02T00:24:46.441Z,38.52
2023-05-02T00:25:47.495Z,38.53
2023-05-02T00:26:47.562Z,38.56
2023-05-02T00:27:47.623Z,38.56
2023-05-02T00:28:46.636Z,38.54
2023-05-02T00:29:46.708Z,38.58
2023-05-02T00:30:46.967Z,38.58
2023-05-02T00:31:47.739Z,38.56
2023-05-02T00:32:47.833Z,38.56
2023-05-02T00:33:47.813Z,38.53
2023-05-02T00:34:46.843Z,38.57
2023-05-02T00:35:47.866Z,38.49
2023-05-02T00:36:47.901Z,38.52
2023-05-02T00:37:46.948Z,38.48
2023-05-02T00:38:46.992Z,38.47
2023-05-02T00:39:48.032Z,38.49
2023-05-02T00:40:48.191Z,38.45
2023-05-02T00:41:47.090Z,38.52
2023-05-02T00:42:47.134Z,38.49
2023-05-02T00:43:47.425Z,38.54
2023-05-02T00:44:48.199Z,38.56
2023-05-02T00:45:48.375Z,38.57
2023-05-02T00:46:48.335Z,38.59
2023-05-02T00:47:48.387Z,38.57
2023-05-02T00:48:47.386Z,38.57
2023-05-02T00:49:48.413Z,38.59
2023-05-02T00:50:48.423Z,38.57
2023-05-02T00:51:47.452Z,38.62
2023-05-02T00:52:48.494Z,38.59
2023-05-02T00:53:48.563Z,38.66
2023-05-02T00:54:48.582Z,38.57
2023-05-02T00:55:47.605Z,38.58
2023-05-02T00:56:47.641Z,38.59
2023-05-02T00:57:48.669Z,38.59
2023-05-02T00:58:48.716Z,38.59
2023-05-02T00:59:47.727Z,38.57
2023-05-02T01:00:47.765Z,38.58
2023-05-02T01:01:47.820Z,38.55
2023-05-02T01:02:48.884Z,38.55
2023-05-02T01:03:48.953Z,38.54
2023-05-02T01:04:47.842Z,38.53
2023-05-02T01:05:48.856Z,38.59
2023-05-02T01:06:48.869Z,38.59
2023-05-02T01:07:48.887Z,38.57
2023-05-02T01:08:47.911Z,38.55
2023-05-02T01:09:47.961Z,38.58
2023-05-02T01:10:50.009Z,38.55
2023-05-02T01:11:48.963Z,38.53
2023-05-02T01:12:47.950Z,38.51
2023-05-02T01:13:48.951Z,38.54
2023-05-02T01:14:47.936Z,38.55
2023-05-02T01:15:49.009Z,38.62
2023-05-02T01:16:48.959Z,38.63
2023-05-02T01:17:48.213Z,38.60
2023-05-02T01:18:47.937Z,38.58
2023-05-02T01:19:48.897Z,38.56
2023-05-02T01:20:48.886Z,38.55
2023-05-02T01:21:47.878Z,38.55
2023-05-02T01:22:48.901Z,38.58
2023-05-02T01:23:48.984Z,38.55
2023-05-02T01:24:47.991Z,38.55
2023-05-02T01:25:49.017Z,38.53
2023-05-02T01:26:49.050Z,38.61
2023-05-02T01:27:49.088Z,38.58
2023-05-02T01:28:48.127Z,38.59
2023-05-02T01:29:48.163Z,38.62
2023-05-02T01:30:48.193Z,38.60
2023-05-02T01:31:48.305Z,38.59
2023-05-02T01:32:49.455Z,38.58
2023-05-02T01:33:49.272Z,38.57
2023-05-02T01:34:49.276Z,38.55
2023-05-02T01:35:49.343Z,38.61
2023-05-02T01:36:49.336Z,38.60
2023-05-02T01:37:49.363Z,38.59
2023-05-02T01:38:49.386Z,38.60
2023-05-02T01:39:49.413Z,38.58
2023-05-02T01:40:49.440Z,38.54
2023-05-02T01:41:49.470Z,38.51
2023-05-02T01:42:49.489Z,38.50
2023-05-02T01:43:49.509Z,38.54
2023-05-02T01:44:49.538Z,38.50
2023-05-02T01:45:49.565Z,38.49
2023-05-02T01:46:48.676Z,38.49
2023-05-02T01:47:49.659Z,38.50
2023-05-02T01:48:49.683Z,38.53
2023-05-02T01:49:49.732Z,38.55
2023-05-02T01:50:48.731Z,38.60
2023-05-02T01:51:48.758Z,38.63
2023-05-02T01:52:49.796Z,38.59
2023-05-02T01:53:49.822Z,38.55
2023-05-02T01:54:49.858Z,38.68
2023-05-02T01:55:49.886Z,38.64
2023-05-02T01:56:48.938Z,38.58
2023-05-02T01:57:48.933Z,38.58
2023-05-02T01:58:50.576Z,38.59
2023-05-02T01:59:48.985Z,38.52
2023-05-02T02:00:49.080Z,38.54
2023-05-02T02:01:50.032Z,38.54
2023-05-02T02:02:50.108Z,38.52
2023-05-02T02:03:49.113Z,38.54
2023-05-02T02:04:50.163Z,38.54
2023-05-02T02:05:50.142Z,38.61
2023-05-02T02:06:49.176Z,38.61
2023-05-02T02:07:50.177Z,38.61
2023-05-02T02:08:50.207Z,38.60
2023-05-02T02:09:50.223Z,38.61
2023-05-02T02:10:50.235Z,38.58
2023-05-02T02:11:50.278Z,38.59
2023-05-02T02:12:50.315Z,38.59
2023-05-02T02:13:50.334Z,38.61
2023-05-02T02:14:50.348Z,38.51
2023-05-02T02:15:49.366Z,38.46
2023-05-02T02:16:49.485Z,38.49
2023-05-02T02:17:49.481Z,38.44
2023-05-02T02:18:49.474Z,38.47
2023-05-02T02:19:50.488Z,38.37
2023-05-02T02:20:50.538Z,38.46
2023-05-02T02:21:50.556Z,38.42
2023-05-02T02:22:50.565Z,38.46
2023-05-02T02:23:50.581Z,38.46
2023-05-02T02:24:53.038Z,38.51
2023-05-02T02:25:50.612Z,38.52
2023-05-02T02:26:50.600Z,38.51
2023-05-02T02:27:49.579Z,38.53
2023-05-02T02:28:49.581Z,38.57
2023-05-02T02:29:50.577Z,38.58
2023-05-02T02:30:50.636Z,38.60
2023-05-02T02:31:50.573Z,38.55
2023-05-02T02:32:50.627Z,38.61
2023-05-02T02:33:50.543Z,38.62
2023-05-02T02:34:49.550Z,38.57
2023-05-02T02:35:50.559Z,38.59
2023-05-02T02:36:49.515Z,38.52
2023-05-02T02:37:49.546Z,38.55
2023-05-02T02:38:49.503Z,38.51
2023-05-02T02:39:49.520Z,38.54
2023-05-02T02:40:50.513Z,38.49
2023-05-02T02:41:50.490Z,38.52
2023-05-02T02:42:49.495Z,38.52
2023-05-02T02:43:50.491Z,38.51
2023-05-02T02:44:49.471Z,38.49
2023-05-02T02:45:50.514Z,38.53
2023-05-02T02:46:49.867Z,38.56
2023-05-02T02:47:50.478Z,38.57
2023-05-02T02:48:50.456Z,38.53
2023-05-02T02:49:50.460Z,38.58
2023-05-02T02:50:50.445Z,38.60
2023-05-02T02:51:50.429Z,38.61
2023-05-02T02:52:49.441Z,38.60
2023-05-02T02:53:49.481Z,38.60
2023-05-02T02:54:49.476Z,38.55
2023-05-02T02:55:50.507Z,38.49
2023-05-02T02:56:49.514Z,38.55
2023-05-02T02:57:49.545Z,38.49
2023-05-02T02:58:50.568Z,38.51
2023-05-02T02:59:49.578Z,38.51
2023-05-02T03:00:50.588Z,38.52
2023-05-02T03:01:50.677Z,38.52
2023-05-02T03:02:50.665Z,38.51
2023-05-02T03:03:49.706Z,38.51
2023-05-02T03:04:50.648Z,38.58
2023-05-02T03:05:49.647Z,38.51
2023-05-02T03:06:49.695Z,38.52
2023-05-02T03:07:49.651Z,38.51
2023-05-02T03:08:49.672Z,38.49
2023-05-02T03:09:49.706Z,38.53
2023-05-02T03:10:49.703Z,38.49
2023-05-02T03:11:50.720Z,38.55
2023-05-02T03:12:50.727Z,38.49
2023-05-02T03:13:50.746Z,38.51
2023-05-02T03:14:50.749Z,38.51
2023-05-02T03:15:50.861Z,38.49
2023-05-02T03:16:50.744Z,38.53
2023-05-02T03:17:50.776Z,38.55
2023-05-02T03:18:50.733Z,38.48
2023-05-02T03:19:49.744Z,38.47
2023-05-02T03:20:50.772Z,38.52
2023-05-02T03:21:49.778Z,38.53
2023-05-02T03:22:50.800Z,38.53
2023-05-02T03:23:50.798Z,38.49
2023-05-02T03:24:51.028Z,38.51
2023-05-02T03:25:50.839Z,38.51
2023-05-02T03:26:50.832Z,38.54
2023-05-02T03:27:50.807Z,38.53
2023-05-02T03:28:49.815Z,38.55
2023-05-02T03:29:50.800Z,38.55
2023-05-02T03:30:49.818Z,38.56
2023-05-02T03:31:50.858Z,38.53
2023-05-02T03:32:49.841Z,38.58
2023-05-02T03:33:49.805Z,38.58
2023-05-02T03:34:50.789Z,38.54
2023-05-02T03:35:49.806Z,38.57
2023-05-02T03:36:50.796Z,38.55
2023-05-02T03:37:50.819Z,38.57
2023-05-02T03:38:49.775Z,38.51
2023-05-02T03:39:50.776Z,38.52
2023-05-02T03:40:50.766Z,38.50
2023-05-02T03:41:50.791Z,38.49
2023-05-02T03:42:49.750Z,38.50
2023-05-02T03:43:50.756Z,38.55
2023-05-02T03:44:50.748Z,38.49
2023-05-02T03:45:50.756Z,38.51
2023-05-02T03:46:49.794Z,38.54
2023-05-02T03:47:50.769Z,38.57
2023-05-02T03:48:50.422Z,38.60
2023-05-02T03:49:50.731Z,38.54
2023-05-02T03:50:50.734Z,38.51
2023-05-02T03:51:50.720Z,38.54
2023-05-02T03:52:50.737Z,38.51
2023-05-02T03:53:50.716Z,38.48
2023-05-02T03:54:49.716Z,38.49
2023-05-02T03:55:49.722Z,38.49
2023-05-02T03:56:50.707Z,38.54
2023-05-02T03:57:50.745Z,38.58
2023-05-02T03:58:49.722Z,38.57
2023-05-02T03:59:50.707Z,38.50
2023-05-02T04:00:50.729Z,38.49
2023-05-02T04:01:50.729Z,38.51
2023-05-02T04:02:50.969Z,38.46
2023-05-02T04:03:50.727Z,38.48
2023-05-02T04:04:50.700Z,38.46
2023-05-02T04:05:50.710Z,38.45
2023-05-02T04:06:50.708Z,38.43
2023-05-02T04:07:50.715Z,38.47
2023-05-02T04:08:50.755Z,38.47
2023-05-02T04:09:50.722Z,38.46
2023-05-02T04:10:50.728Z,38.49
2023-05-02T04:11:49.729Z,38.48
2023-05-02T04:12:50.721Z,38.38
2023-05-02T04:13:52.661Z,38.44
2023-05-02T04:14:50.766Z,38.44
2023-05-02T04:15:50.738Z,38.45
2023-05-02T04:16:49.776Z,38.44
2023-05-02T04:17:50.822Z,38.41
2023-05-02T04:18:50.714Z,38.43
2023-05-02T04:19:50.686Z,38.51
2023-05-02T04:20:50.719Z,38.45
2023-05-02T04:21:49.932Z,38.53
2023-05-02T04:22:50.692Z,38.53
2023-05-02T04:23:50.684Z,38.46
2023-05-02T04:24:50.689Z,38.58
2023-05-02T04:25:50.690Z,38.46
2023-05-02T04:26:49.647Z,38.45
2023-05-02T04:27:50.928Z,38.48
2023-05-02T04:28:50.643Z,38.49
2023-05-02T04:29:49.663Z,38.51
2023-05-02T04:30:49.652Z,38.46
2023-05-02T04:31:50.615Z,38.40
2023-05-02T04:32:49.642Z,38.45
2023-05-02T04:33:50.601Z,38.41
2023-05-02T04:34:49.594Z,38.48
2023-05-02T04:35:50.575Z,38.46
2023-05-02T04:36:49.584Z,38.48
2023-05-02T04:37:50.819Z,38.44
2023-05-02T04:38:50.567Z,38.41
2023-05-02T04:39:49.577Z,38.50
2023-05-02T04:40:49.552Z,38.50
2023-05-02T04:41:49.556Z,38.51
2023-05-02T04:42:49.540Z,38.50
2023-05-02T04:43:50.527Z,38.50
2023-05-02T04:44:50.526Z,38.51
2023-05-02T04:45:50.661Z,38.50
2023-05-02T04:46:50.710Z,38.48
2023-05-02T04:47:50.535Z,38.51
2023-05-02T04:48:50.491Z,38.54
2023-05-02T04:49:49.510Z,38.52
2023-05-02T04:50:49.485Z,38.50
2023-05-02T04:51:50.502Z,38.51
2023-05-02T04:52:49.463Z,38.47
2023-05-02T04:53:50.484Z,38.50
2023-05-02T04:54:49.455Z,38.51
2023-05-02T04:55:50.440Z,38.54
2023-05-02T04:56:50.600Z,38.56
2023-05-02T04:57:49.446Z,38.51
2023-05-02T04:58:50.417Z,38.46
2023-05-02T04:59:50.421Z,38.51
2023-05-02T05:00:50.423Z,38.50
2023-05-02T05:01:50.729Z,38.56
2023-05-02T05:02:50.494Z,38.57
2023-05-02T05:03:50.836Z,38.45
2023-05-02T05:04:50.385Z,38.50
2023-05-02T05:05:50.377Z,38.46
2023-05-02T05:06:49.480Z,38.45
2023-05-02T05:07:49.367Z,38.44
2023-05-02T05:08:49.722Z,38.47
2023-05-02T05:09:51.292Z,38.49
2023-05-02T05:10:50.354Z,38.46
2023-05-02T05:11:50.339Z,38.48
2023-05-02T05:12:49.804Z,38.50
2023-05-02T05:13:49.578Z,38.47
2023-05-02T05:14:50.326Z,38.48
2023-05-02T05:15:50.375Z,38.47
2023-05-02T05:16:50.398Z,38.51
2023-05-02T05:17:49.389Z,38.45
2023-05-02T05:18:49.330Z,38.45
2023-05-02T05:19:49.322Z,38.52
2023-05-02T05:20:50.297Z,38.49
2023-05-02T05:21:50.297Z,38.48
2023-05-02T05:22:49.288Z,38.46
2023-05-02T05:23:50.267Z,38.50
2023-05-02T05:24:50.284Z,38.43
2023-05-02T05:25:49.354Z,38.42
2023-05-02T05:26:49.280Z,38.44
2023-05-02T05:27:49.270Z,38.48
2023-05-02T05:28:50.252Z,38.52
2023-05-02T05:29:50.240Z,38.50
2023-05-02T05:30:50.229Z,38.64
2023-05-02T05:31:49.413Z,38.72
2023-05-02T05:32:49.241Z,38.86
2023-05-02T05:33:50.319Z,38.92
2023-05-02T05:34:50.445Z,39.03
2023-05-02T05:35:50.701Z,39.04
2023-05-02T05:36:50.211Z,39.02
2023-05-02T05:37:50.004Z,39.06
2023-05-02T05:38:49.443Z,39.06
2023-05-02T05:39:50.655Z,39.14
2023-05-02T05:40:50.619Z,39.28
2023-05-02T05:41:50.281Z,39.27
2023-05-02T05:42:50.709Z,39.46
2023-05-02T05:43:50.272Z,39.32
2023-05-02T05:44:50.729Z,39.45
2023-05-02T05:45:50.203Z,39.35
2023-05-02T05:46:50.650Z,39.44
2023-05-02T05:47:50.209Z,39.31
2023-05-02T05:48:49.499Z,39.36
2023-05-02T05:49:49.488Z,39.36
2023-05-02T05:50:50.709Z,39.19
2023-05-02T05:51:50.329Z,39.44
2023-05-02T05:52:49.515Z,39.42
2023-05-02T05:53:50.812Z,39.34
2023-05-02T05:54:49.234Z,39.11
2023-05-02T05:55:50.275Z,39.11
2023-05-02T05:56:50.119Z,39.37
2023-05-02T05:57:50.079Z,38.83
2023-05-02T05:58:49.246Z,38.85
2023-05-02T05:59:50.720Z,39.11
2023-05-02T06:00:50.896Z,39.21
2023-05-02T06:01:49.985Z,38.87
2023-05-02T06:02:50.979Z,38.96
2023-05-02T06:03:50.128Z,39.06
2023-05-02T06:04:49.086Z,39.05
2023-05-02T06:05:50.012Z,39.17
2023-05-02T06:06:50.163Z,39.08
2023-05-02T06:07:49.991Z,39.18
2023-05-02T06:08:48.992Z,39.25
2023-05-02T06:09:49.969Z,39.27
2023-05-02T06:10:49.995Z,39.17
2023-05-02T06:11:48.973Z,39.08
2023-05-02T06:12:49.368Z,39.08
2023-05-02T06:13:49.946Z,39.09
2023-05-02T06:14:49.984Z,39.09
2023-05-02T06:15:49.977Z,39.05
2023-05-02T06:16:49.998Z,39.08
2023-05-02T06:17:48.980Z,39.23
2023-05-02T06:20:07.968Z,39.23
2023-05-02T06:21:08.974Z,39.25
2023-05-02T06:22:08.980Z,39.18
2023-05-02T06:23:08.947Z,39.31
2023-05-02T06:24:08.942Z,39.06
2023-05-02T06:25:07.922Z,39.14
2023-05-02T06:26:08.921Z,39.15
2023-05-02T06:27:08.907Z,39.21
2023-05-02T06:28:08.905Z,39.19
2023-05-02T06:29:08.892Z,39.14
2023-05-02T06:30:07.891Z,39.15
2023-05-02T06:31:08.909Z,39.15
2023-05-02T06:32:09.091Z,39.09
2023-05-02T06:33:07.934Z,39.00
2023-05-02T06:34:08.888Z,38.98
2023-05-02T06:35:07.896Z,39.00
2023-05-02T06:36:08.908Z,39.11
2023-05-02T06:37:09.043Z,39.20
2023-05-02T06:38:08.896Z,39.10
2023-05-02T06:39:08.885Z,39.11
2023-05-02T06:40:08.891Z,39.11
2023-05-02T06:41:08.879Z,39.14
2023-05-02T06:42:08.872Z,39.15
2023-05-02T06:43:08.873Z,39.08
2023-05-02T06:44:08.887Z,39.11
2023-05-02T06:45:08.915Z,39.14
2023-05-02T06:46:07.918Z,39.11
2023-05-02T06:47:08.017Z,39.23
2023-05-02T06:48:09.016Z,39.11
2023-05-02T06:49:07.969Z,38.98
2023-05-02T06:50:09.001Z,39.04
2023-05-02T06:51:09.026Z,39.18
2023-05-02T06:52:09.170Z,39.22
2023-05-02T06:53:09.115Z,39.19
2023-05-02T06:54:08.106Z,39.11
2023-05-02T06:55:09.080Z,39.14
2023-05-02T06:56:09.097Z,39.10
2023-05-02T06:57:09.164Z,39.03
2023-05-02T06:58:09.160Z,38.63
2023-05-02T06:59:08.141Z,38.40
2023-05-02T07:00:08.147Z,38.46
2023-05-02T07:01:08.211Z,38.63
2023-05-02T07:02:09.135Z,38.52
2023-05-02T07:03:08.295Z,38.39
2023-05-02T07:04:08.231Z,38.67
2023-05-02T07:05:09.201Z,38.83
2023-05-02T07:06:08.241Z,38.86
2023-05-02T07:07:09.226Z,39.00
2023-05-02T07:08:09.272Z,39.03
2023-05-02T07:09:08.305Z,39.03
2023-05-02T07:10:09.296Z,39.00
2023-05-02T07:11:09.307Z,38.93
2023-05-02T07:12:08.335Z,38.84
2023-05-02T07:13:08.321Z,38.78
2023-05-02T07:14:08.338Z,38.84
2023-05-02T07:15:08.365Z,38.82
2023-05-02T07:16:09.424Z,38.81
2023-05-02T07:17:09.429Z,38.84
2023-05-02T07:18:09.428Z,38.84
2023-05-02T07:19:08.386Z,38.86
2023-05-02T07:20:09.413Z,38.88
2023-05-02T07:21:09.435Z,38.87
2023-05-02T07:22:09.453Z,38.87
2023-05-02T07:23:09.497Z,38.88
2023-05-02T07:24:08.583Z,38.90
2023-05-02T07:25:08.611Z,38.85
2023-05-02T07:26:08.628Z,38.84
2023-05-02T07:27:09.607Z,38.89
2023-05-02T07:28:08.631Z,38.85
2023-05-02T07:29:08.640Z,38.86
2023-05-02T07:30:08.678Z,38.57
2023-05-02T07:31:09.643Z,38.53
2023-05-02T07:32:08.725Z,38.69
2023-05-02T07:33:09.770Z,38.87
2023-05-02T07:34:09.669Z,38.91
2023-05-02T07:35:09.669Z,39.04
2023-05-02T07:36:08.683Z,39.00
2023-05-02T07:37:08.962Z,39.12
2023-05-02T07:38:09.684Z,39.15
2023-05-02T07:39:09.697Z,39.17
2023-05-02T07:40:08.732Z,39.10
2023-05-02T07:41:09.752Z,38.96
2023-05-02T07:42:09.723Z,39.05
2023-05-02T07:43:11.096Z,39.09
2023-05-02T07:44:09.796Z,39.07
2023-05-02T07:45:09.804Z,39.05
2023-05-02T07:46:09.867Z,39.10
2023-05-02T07:47:09.209Z,39.11
2023-05-02T07:48:09.863Z,39.01
2023-05-02T07:49:09.825Z,39.08
2023-05-02T07:50:09.842Z,39.06
2023-05-02T07:51:09.849Z,39.03
2023-05-02T07:52:09.227Z,39.02
2023-05-02T07:53:09.688Z,39.03
2023-05-02T07:54:09.913Z,38.99
2023-05-02T07:55:08.855Z,38.98
2023-05-02T07:56:09.879Z,38.87
2023-05-02T07:57:08.905Z,38.81
2023-05-02T07:58:08.936Z,39.00
2023-05-02T07:59:09.940Z,38.95
2023-05-02T08:00:08.946Z,39.03
2023-05-02T08:01:09.954Z,38.94
2023-05-02T08:02:09.998Z,38.91
2023-05-02T08:03:09.065Z,38.80
2023-05-02T08:04:09.182Z,38.84
2023-05-02T08:05:10.127Z,38.91
2023-05-02T08:06:09.010Z,38.89
2023-05-02T08:07:10.007Z,38.89
2023-05-02T08:08:10.049Z,38.92
2023-05-02T08:09:10.047Z,38.82
2023-05-02T08:10:10.062Z,38.79
2023-05-02T08:11:10.076Z,38.69
2023-05-02T08:12:10.102Z,38.74
2023-05-02T08:13:09.169Z,38.69
2023-05-02T08:14:09.169Z,38.74
2023-05-02T08:15:09.189Z,38.71
2023-05-02T08:16:09.237Z,38.70
2023-05-02T08:17:10.228Z,38.82
2023-05-02T08:18:10.281Z,38.92
2023-05-02T08:19:10.263Z,38.88
2023-05-02T08:20:10.267Z,38.89
2023-05-02T08:21:10.315Z,38.99
2023-05-02T08:22:10.354Z,38.99
2023-05-02T08:23:10.391Z,38.94
2023-05-02T08:24:10.424Z,38.95
2023-05-02T08:25:10.469Z,38.96
2023-05-02T08:26:10.546Z,38.95
2023-05-02T08:27:10.581Z,38.97
2023-05-02T08:28:10.663Z,38.95
2023-05-02T08:29:09.659Z,38.91
2023-05-02T08:30:10.722Z,38.82
2023-05-02T08:31:09.779Z,38.92
2023-05-02T08:32:10.927Z,38.95
2023-05-02T08:33:10.951Z,38.85
2023-05-02T08:34:10.901Z,38.82
2023-05-02T08:35:09.939Z,38.93
2023-05-02T08:36:11.012Z,38.88
2023-05-02T08:37:10.046Z,38.94
2023-05-02T08:38:11.122Z,38.90
2023-05-02T08:39:10.170Z,38.94
2023-05-02T08:40:10.223Z,38.87
2023-05-02T08:41:10.265Z,38.91
2023-05-02T08:42:11.353Z,38.89
2023-05-02T08:43:10.716Z,38.97
2023-05-02T08:44:11.484Z,38.93
2023-05-02T08:45:12.281Z,38.91
2023-05-02T08:46:11.525Z,38.86
2023-05-02T08:47:11.700Z,38.79
2023-05-02T08:48:11.820Z,38.84
2023-05-02T08:49:11.486Z,38.87
2023-05-02T08:50:12.207Z,38.83
2023-05-02T08:51:10.471Z,38.88
2023-05-02T08:52:11.484Z,38.78
2023-05-02T08:53:11.480Z,38.78
2023-05-02T08:54:11.465Z,38.78
2023-05-02T08:55:11.444Z,38.72
2023-05-02T08:56:10.448Z,38.67
2023-05-02T08:57:10.455Z,38.66
2023-05-02T08:58:12.689Z,38.66
2023-05-02T08:59:11.415Z,38.68
2023-05-02T09:00:11.441Z,38.70
2023-05-02T09:01:11.430Z,38.66
2023-05-02T09:02:10.401Z,38.72
2023-05-02T09:03:11.434Z,38.69
2023-05-02T09:04:11.451Z,38.66
2023-05-02T09:05:10.371Z,38.62
2023-05-02T09:06:11.405Z,38.65
2023-05-02T09:07:11.361Z,38.65
2023-05-02T09:08:11.362Z,38.60
2023-05-02T09:09:10.347Z,38.64
2023-05-02T09:10:10.346Z,38.64
2023-05-02T09:11:11.338Z,38.61
2023-05-02T09:12:10.334Z,38.60
2023-05-02T09:13:11.305Z,38.61
2023-05-02T09:14:11.308Z,38.54
2023-05-02T09:15:11.292Z,38.55
2023-05-02T09:16:10.355Z,38.53
2023-05-02T09:17:11.319Z,38.53
2023-05-02T09:18:11.292Z,38.56
2023-05-02T09:19:11.280Z,38.50
2023-05-02T09:20:11.257Z,38.53
2023-05-02T09:21:12.447Z,38.58
2023-05-02T09:22:10.237Z,38.56
2023-05-02T09:23:11.270Z,38.53
2023-05-02T09:24:11.315Z,38.56
2023-05-02T09:25:11.378Z,38.53
2023-05-02T09:26:10.410Z,38.53
2023-05-02T09:27:11.489Z,38.57
2023-05-02T09:28:11.523Z,38.53
2023-05-02T09:29:10.580Z,38.56
2023-05-02T09:30:10.607Z,38.58
2023-05-02T09:31:10.690Z,38.57
2023-05-02T09:32:11.825Z,38.51
2023-05-02T09:33:11.806Z,38.53
2023-05-02T09:34:11.821Z,38.58
2023-05-02T09:35:11.834Z,38.53
2023-05-02T09:36:10.878Z,38.51
2023-05-02T09:37:10.936Z,38.55
2023-05-02T09:38:12.008Z,38.58
2023-05-02T09:39:12.016Z,38.56
2023-05-02T09:40:12.051Z,38.53
2023-05-02T09:41:12.103Z,38.56
2023-05-02T09:42:11.145Z,38.61
2023-05-02T09:43:11.184Z,38.56
2023-05-02T09:44:11.252Z,38.57
2023-05-02T09:45:12.280Z,38.60
2023-05-02T09:46:12.377Z,38.48
2023-05-02T09:47:11.351Z,38.51
2023-05-02T09:48:12.820Z,38.54
2023-05-02T09:49:11.460Z,38.56
2023-05-02T09:50:11.474Z,38.54
2023-05-02T09:51:11.524Z,38.51
2023-05-02T09:52:11.571Z,38.41
2023-05-02T09:53:12.726Z,38.21
2023-05-02T09:54:11.634Z,37.82
2023-05-02T09:55:11.668Z,37.77
2023-05-02T09:56:12.703Z,37.90
2023-05-02T09:57:12.757Z,37.91
2023-05-02T09:58:12.806Z,38.01
2023-05-02T09:59:12.819Z,37.97
2023-05-02T10:00:12.857Z,38.02
2023-05-02T10:01:12.913Z,37.90
2023-05-02T10:02:12.250Z,37.83
2023-05-02T10:03:13.036Z,37.56
2023-05-02T10:04:13.054Z,37.53
2023-05-02T10:05:13.026Z,37.42
2023-05-02T10:06:13.096Z,37.87
2023-05-02T10:07:13.078Z,37.60
2023-05-02T10:08:13.147Z,37.78
2023-05-02T10:09:16.599Z,37.62
2023-05-02T10:10:13.149Z,37.90
2023-05-02T10:11:13.145Z,38.01
2023-05-02T10:12:12.137Z,38.02
2023-05-02T10:13:13.128Z,38.11
2023-05-02T10:14:12.128Z,38.03
2023-05-02T10:15:13.119Z,38.05
2023-05-02T10:16:13.136Z,38.11
2023-05-02T10:17:13.149Z,38.13
2023-05-02T10:18:13.156Z,38.12
2023-05-02T10:19:13.093Z,38.14
2023-05-02T10:20:12.108Z,38.15
2023-05-02T10:21:12.091Z,38.07
2023-05-02T10:22:12.077Z,38.10
2023-05-02T10:23:13.063Z,38.11
2023-05-02T10:24:13.058Z,38.09
2023-05-02T10:25:12.051Z,38.29
2023-05-02T10:26:13.046Z,38.24
2023-05-02T10:27:13.041Z,38.17
2023-05-02T10:28:13.029Z,38.16
2023-05-02T10:29:12.034Z,38.20
2023-05-02T10:30:13.007Z,38.19
2023-05-02T10:31:13.089Z,38.15
2023-05-02T10:32:12.999Z,38.20
2023-05-02T10:33:13.070Z,38.12
2023-05-02T10:34:12.993Z,38.16
2023-05-02T10:35:12.974Z,38.14
2023-05-02T10:36:11.995Z,38.10
2023-05-02T10:37:12.976Z,38.22
2023-05-02T10:38:12.978Z,38.29
2023-05-02T10:39:11.965Z,38.19
2023-05-02T10:40:12.977Z,38.26
2023-05-02T10:41:12.932Z,38.29
2023-05-02T10:42:12.942Z,38.23
2023-05-02T10:43:13.253Z,38.24
2023-05-02T10:44:11.942Z,38.24
2023-05-02T10:45:11.936Z,38.22
2023-05-02T10:46:12.976Z,38.26
2023-05-02T10:47:12.908Z,38.21
2023-05-02T10:48:11.974Z,38.17
2023-05-02T10:49:11.912Z,38.19
2023-05-02T10:50:11.908Z,38.19
2023-05-02T10:51:12.861Z,38.17
2023-05-02T10:52:11.896Z,38.18
2023-05-02T10:53:12.857Z,38.19
2023-05-02T10:54:12.878Z,38.20
2023-05-02T10:55:12.902Z,38.19
2023-05-02T10:56:12.946Z,38.22
2023-05-02T10:57:12.973Z,38.27
2023-05-02T10:58:12.971Z,38.17
2023-05-02T10:59:11.998Z,38.23
2023-05-02T11:00:13.016Z,38.21
2023-05-02T11:01:13.084Z,38.21
2023-05-02T11:02:13.103Z,38.16
2023-05-02T11:03:13.194Z,38.17
2023-05-02T11:04:13.148Z,38.24
2023-05-02T11:05:12.123Z,38.22
2023-05-02T11:06:12.174Z,38.23
2023-05-02T11:07:13.159Z,38.21
2023-05-02T11:08:13.207Z,38.14
2023-05-02T11:09:12.202Z,38.14
2023-05-02T11:10:13.229Z,38.17
2023-05-02T11:11:12.233Z,38.14
2023-05-02T11:12:12.268Z,38.21
2023-05-02T11:13:12.283Z,38.23
2023-05-02T11:14:14.364Z,38.12
2023-05-02T11:15:13.315Z,37.99
2023-05-02T11:16:13.335Z,38.16
2023-05-02T11:17:13.356Z,38.17
2023-05-02T11:18:13.519Z,38.21
2023-05-02T11:19:13.404Z,38.20
2023-05-02T11:20:13.507Z,38.17
2023-05-02T11:21:12.424Z,38.19
2023-05-02T11:22:12.445Z,38.19
2023-05-02T11:23:13.473Z,38.21
2023-05-02T11:24:12.508Z,38.13
2023-05-02T11:25:13.515Z,38.21
2023-05-02T11:26:12.536Z,38.22
2023-05-02T11:27:13.551Z,38.22
2023-05-02T11:28:13.567Z,38.19
2023-05-02T11:29:12.608Z,38.10
2023-05-02T11:30:13.764Z,38.14
2023-05-02T11:31:13.630Z,38.18
2023-05-02T11:32:13.732Z,38.13
2023-05-02T11:33:13.701Z,38.13
2023-05-02T11:34:13.688Z,38.17
2023-05-02T11:35:12.725Z,38.20
2023-05-02T11:36:13.722Z,38.22
2023-05-02T11:37:13.725Z,38.11
2023-05-02T11:38:13.742Z,38.06
2023-05-02T11:39:12.774Z,38.16
2023-05-02T11:40:12.859Z,38.21
2023-05-02T11:41:12.802Z,38.17
2023-05-02T11:42:12.801Z,38.24
2023-05-02T11:43:13.834Z,38.15
2023-05-02T11:44:12.855Z,38.16
2023-05-02T11:45:13.884Z,38.15
2023-05-02T11:46:12.916Z,38.15
2023-05-02T11:47:13.912Z,38.19
2023-05-02T11:48:12.989Z,38.25
2023-05-02T11:49:15.002Z,38.17
2023-05-02T11:50:12.980Z,38.19
2023-05-02T11:51:13.000Z,38.16
2023-05-02T11:52:14.019Z,38.11
2023-05-02T11:53:13.024Z,38.03
2023-05-02T11:54:13.051Z,37.99
2023-05-02T11:55:13.055Z,38.05
2023-05-02T11:56:13.121Z,38.05
2023-05-02T11:57:13.165Z,38.01
2023-05-02T11:58:13.145Z,38.02
2023-05-02T11:59:14.159Z,38.07
2023-05-02T12:00:14.165Z,38.06
2023-05-02T12:01:14.241Z,38.11
2023-05-02T12:02:13.238Z,38.09
2023-05-02T12:03:14.335Z,38.13
2023-05-02T12:04:14.261Z,38.11
2023-05-02T12:05:13.417Z,38.10
2023-05-02T12:06:13.601Z,38.14
2023-05-02T12:07:13.489Z,38.21
2023-05-02T12:08:14.338Z,38.19
2023-05-02T12:09:13.344Z,38.19
2023-05-02T12:10:14.408Z,38.20
2023-05-02T12:11:14.391Z,38.20
2023-05-02T12:12:13.407Z,38.19
2023-05-02T12:13:13.454Z,38.22
2023-05-02T12:14:14.432Z,38.18
2023-05-02T12:15:14.446Z,38.23
2023-05-02T12:16:14.516Z,38.20
2023-05-02T12:17:13.468Z,38.20
2023-05-02T12:18:14.604Z,38.28
2023-05-02T12:19:13.520Z,38.25
2023-05-02T12:20:14.549Z,38.29
2023-05-02T12:21:14.555Z,38.27
2023-05-02T12:22:13.557Z,38.28
2023-05-02T12:23:13.591Z,38.41
2023-05-02T12:24:14.616Z,38.47
2023-05-02T12:25:13.628Z,38.49
2023-05-02T12:26:14.664Z,38.60
2023-05-02T12:27:14.700Z,38.89
2023-05-02T12:28:14.782Z,38.75
2023-05-02T12:29:14.740Z,38.99
2023-05-02T12:30:14.751Z,38.91
2023-05-02T12:31:13.794Z,39.02
2023-05-02T12:32:13.773Z,38.85
2023-05-02T12:33:13.900Z,39.12
2023-05-02T12:34:13.795Z,39.09
2023-05-02T12:35:14.815Z,39.03
2023-05-02T12:36:14.825Z,39.03
2023-05-02T12:37:13.837Z,39.16
2023-05-02T12:38:14.856Z,39.11
2023-05-02T12:39:13.852Z,39.06
2023-05-02T12:40:14.876Z,39.05
2023-05-02T12:41:14.896Z,39.00
2023-05-02T12:42:14.893Z,39.00
2023-05-02T12:43:14.915Z,39.05
2023-05-02T12:44:14.932Z,39.15
2023-05-02T12:45:13.924Z,39.16
2023-05-02T12:46:14.953Z,39.30
2023-05-02T12:47:15.158Z,39.50
2023-05-02T12:48:15.022Z,39.45
2023-05-02T12:49:14.005Z,39.32
2023-05-02T12:50:14.008Z,39.31
2023-05-02T12:51:15.015Z,39.25
2023-05-02T12:52:15.042Z,39.17
2023-05-02T12:53:14.064Z,39.20
2023-05-02T12:54:14.098Z,39.17
2023-05-02T12:55:14.108Z,39.14